Time;durP1;ratioP1;P1;durP2;ratioP2;P2;SDS_P1;SDS_P2;PMS_P1;PMS_P2;Temp;Humidity;BMP_temperature;BMP_pressure;BME280_temperature;BME280_humidity;BME280_pressure;Samples;Min_cycle;Max_cycle;Signal;HPM_P1;HPM_P2
2021/11/03 00:01:06;;;;;;;12.85;7.63;;;4.70;99.90;;;;;;20887589;28;20029;-79
2021/11/03 00:11:08;;;;;;;12.95;7.00;;;4.50;99.90;;;;;;20919286;28;20097;-80
2021/11/03 00:21:09;;;;;;;14.38;6.22;;;4.60;99.90;;;;;;20871869;28;20044;-80
2021/11/03 00:31:10;;;;;;;12.63;7.13;;;4.70;99.90;;;;;;20879069;28;20531;-79
2021/11/03 00:41:11;;;;;;;13.80;6.18;;;4.70;99.90;;;;;;20898082;28;20055;-80
2021/11/03 00:51:13;;;;;;;11.57;6.55;;;4.70;99.90;;;;;;20902346;28;20041;-80
2021/11/03 01:01:15;;;;;;;13.85;6.25;;;4.80;99.90;;;;;;20900325;28;20602;-79
2021/11/03 01:11:16;;;;;;;;;;;4.80;99.90;;;;;;20914952;28;20032;-81
2021/11/03 01:21:16;;;;;;;12.10;6.90;;;4.90;99.90;;;;;;20898776;28;19928;-81
2021/11/03 01:31:18;;;;;;;11.45;5.88;;;4.90;99.90;;;;;;20909097;28;20036;-81
2021/11/03 01:41:21;;;;;;;12.77;6.03;;;5.00;99.90;;;;;;20970329;28;20040;-81
2021/11/03 01:51:31;;;;;;;11.20;6.78;;;5.00;99.90;;;;;;20968811;28;20029;-80
2021/11/03 02:01:34;;;;;;;10.57;6.43;;;5.10;99.90;;;;;;20966105;28;20039;-81
2021/11/03 02:11:35;;;;;;;12.43;6.95;;;5.10;99.90;;;;;;20966768;28;20037;-81
2021/11/03 02:21:50;;;;;;;11.63;5.80;;;5.20;99.90;;;;;;20971617;28;20037;-80
2021/11/03 02:31:55;;;;;;;9.75;5.72;;;5.30;99.90;;;;;;20968446;28;20033;-81
2021/11/03 02:41:57;;;;;;;16.40;7.68;;;5.20;99.90;;;;;;20966933;28;20407;-80
2021/11/03 02:51:58;;;;;;;14.50;7.05;;;5.20;99.90;;;;;;20964675;28;20025;-81
2021/11/03 03:02:00;;;;;;;;;;;5.30;99.90;;;;;;20964751;28;20029;-79
2021/11/03 03:12:05;;;;;;;18.60;8.73;;;5.20;99.90;;;;;;20968492;28;19912;-80
2021/11/03 03:22:14;;;;;;;11.63;7.38;;;5.20;99.90;;;;;;20973919;28;20036;-81
2021/11/03 03:32:16;;;;;;;17.60;8.80;;;5.10;99.90;;;;;;20977826;28;20033;-82
2021/11/03 03:42:18;;;;;;;11.98;7.20;;;5.10;99.90;;;;;;20976152;28;20021;-80
2021/11/03 03:52:21;;;;;;;13.57;7.95;;;5.10;99.90;;;;;;20976968;28;20686;-80
2021/11/03 04:02:22;;;;;;;12.90;6.72;;;5.10;99.90;;;;;;20977665;28;20029;-80
2021/11/03 04:12:23;;;;;;;12.45;8.00;;;5.10;99.90;;;;;;20993993;28;20082;-79
2021/11/03 04:22:24;;;;;;;;;;;5.00;99.90;;;;;;20972980;28;20043;-81
2021/11/03 04:32:25;;;;;;;11.68;7.68;;;4.90;99.90;;;;;;20936256;28;19923;-78
2021/11/03 04:42:26;;;;;;;13.85;8.20;;;4.80;99.90;;;;;;20915501;28;20079;-79
2021/11/03 04:52:28;;;;;;;19.45;9.77;;;4.70;99.90;;;;;;20896216;28;20029;-79
2021/11/03 05:02:29;;;;;;;19.13;10.43;;;4.70;99.90;;;;;;20895216;28;20029;-78
2021/11/03 05:12:31;;;;;;;18.13;8.13;;;4.80;99.90;;;;;;20894138;28;20106;-79
2021/11/03 05:22:32;;;;;;;13.90;7.95;;;4.70;99.90;;;;;;20896445;28;20037;-81
2021/11/03 05:32:33;;;;;;;22.75;10.50;;;4.70;99.90;;;;;;20919620;28;20082;-80
2021/11/03 05:42:34;;;;;;;;;;;4.70;99.90;;;;;;20919915;28;20032;-80
2021/11/03 05:52:35;;;;;;;17.30;9.03;;;4.60;99.90;;;;;;20883437;28;19912;-80
2021/11/03 06:02:35;;;;;;;13.90;7.97;;;4.60;99.90;;;;;;20916943;28;20271;-81
2021/11/03 06:12:36;;;;;;;24.17;10.30;;;4.60;99.90;;;;;;20971690;28;20029;-80
2021/11/03 06:22:37;;;;;;;24.83;9.70;;;4.60;99.90;;;;;;20969467;28;20283;-79
2021/11/03 06:32:38;;;;;;;27.98;12.45;;;4.60;99.90;;;;;;20989661;28;20037;-80
2021/11/03 06:42:39;;;;;;;;;;;4.60;99.90;;;;;;20969341;28;20033;-80
2021/11/03 06:52:41;;;;;;;29.15;14.93;;;4.60;99.90;;;;;;20982059;28;20181;-80
2021/11/03 07:02:43;;;;;;;35.33;16.40;;;4.70;99.90;;;;;;20993719;28;20030;-80
2021/11/03 07:12:44;;;;;;;31.65;15.07;;;4.80;99.90;;;;;;20984961;28;20062;-79
2021/11/03 07:22:45;;;;;;;28.40;14.83;;;4.90;99.90;;;;;;20946723;28;20033;-79
2021/11/03 07:32:46;;;;;;;29.90;14.88;;;5.10;99.90;;;;;;20971274;28;20300;-80
2021/11/03 07:42:47;;;;;;;31.67;14.90;;;5.20;99.90;;;;;;20971416;28;20041;-81
2021/11/03 07:52:48;;;;;;;33.83;16.48;;;5.40;99.90;;;;;;20945683;28;20036;-80
2021/11/03 08:02:49;;;;;;;31.20;14.55;;;5.60;99.90;;;;;;20915416;28;20029;-79
2021/11/03 08:12:53;;;;;;;28.05;14.82;;;5.40;99.90;;;;;;20932704;28;20029;-79
2021/11/03 08:22:55;;;;;;;23.05;12.02;;;5.50;99.90;;;;;;20929744;28;20096;-82
2021/11/03 08:33:19;;;;;;;23.13;11.93;;;5.60;99.90;;;;;;20905700;28;20032;-79
2021/11/03 08:43:23;;;;;;;25.10;13.70;;;5.90;99.90;;;;;;20934564;28;20025;-81
2021/11/03 08:53:24;;;;;;;20.65;11.38;;;5.90;99.90;;;;;;20816375;28;20029;-78
2021/11/03 09:03:26;;;;;;;20.92;11.57;;;6.00;99.90;;;;;;20833182;28;20057;-79
2021/11/03 09:13:29;;;;;;;21.70;12.52;;;6.10;99.90;;;;;;20847035;28;20035;-81
2021/11/03 09:23:30;;;;;;;24.17;13.52;;;6.20;99.90;;;;;;20837887;28;20041;-82
2021/11/03 09:33:33;;;;;;;;;;;6.40;99.90;;;;;;20831253;28;20037;-82
2021/11/03 09:43:45;;;;;;;24.17;13.02;;;6.40;99.90;;;;;;20833714;28;19956;-82
2021/11/03 09:53:48;;;;;;;32.78;14.73;;;6.40;99.90;;;;;;20878534;28;20099;-81
2021/11/03 10:04:00;;;;;;;35.88;13.55;;;6.30;99.90;;;;;;20868033;28;20049;-81
2021/11/03 10:14:02;;;;;;;23.10;12.82;;;6.30;99.90;;;;;;20862847;28;20048;-81
2021/11/03 10:24:22;;;;;;;29.02;12.75;;;6.60;99.90;;;;;;20862869;28;20032;-79
2021/11/03 10:34:35;;;;;;;20.10;11.52;;;6.70;99.90;;;;;;20889326;28;20423;-80
2021/11/03 10:44:35;;;;;;;19.98;11.15;;;6.70;99.90;;;;;;20886048;28;20033;-81
2021/11/03 10:54:54;;;;;;;27.53;14.00;;;6.80;99.90;;;;;;20921775;28;20014;-80
2021/11/03 11:04:57;;;;;;;18.15;10.63;;;7.00;99.90;;;;;;20907672;28;20037;-80
2021/11/03 11:15:14;;;;;;;14.07;7.65;;;7.10;99.90;;;;;;20849335;28;20036;-81
2021/11/03 11:25:35;;;;;;;24.35;12.63;;;7.30;99.90;;;;;;20868790;23;20045;-78
2021/11/03 11:35:44;;;;;;;6.63;4.15;;;7.50;99.90;;;;;;20871047;28;20037;-79
2021/11/03 11:45:45;;;;;;;10.38;4.57;;;7.50;99.90;;;;;;20876953;28;20065;-78
2021/11/03 11:56:09;;;;;;;6.00;3.90;;;7.40;99.90;;;;;;20888660;28;20120;-79
2021/11/03 12:06:10;;;;;;;6.60;3.75;;;7.40;99.90;;;;;;20889745;28;20029;-82
2021/11/03 12:16:14;;;;;;;3.50;2.50;;;7.50;99.90;;;;;;20854997;28;20725;-82
2021/11/03 12:26:22;;;;;;;4.38;2.60;;;7.60;99.90;;;;;;20873990;28;20087;-82
2021/11/03 12:36:23;;;;;;;3.60;2.20;;;7.60;99.90;;;;;;20889897;28;20494;-80
2021/11/03 12:46:25;;;;;;;4.03;2.23;;;7.80;99.90;;;;;;20888507;28;20202;-80
2021/11/03 12:56:31;;;;;;;15.43;7.65;;;7.90;99.90;;;;;;20885554;28;20682;-83
2021/11/03 13:06:39;;;;;;;5.43;4.00;;;8.10;99.90;;;;;;20867877;28;20029;-79
2021/11/03 13:16:44;;;;;;;2.30;1.67;;;8.20;99.90;;;;;;20858091;28;20048;-82
2021/11/03 13:26:48;;;;;;;5.32;2.40;;;8.20;99.90;;;;;;20865842;28;20029;-80
2021/11/03 13:37:03;;;;;;;4.68;3.05;;;8.10;99.90;;;;;;20866574;28;20060;-81
2021/11/03 13:47:26;;;;;;;5.47;3.60;;;8.00;99.90;;;;;;20850492;28;20040;-82
2021/11/03 13:57:34;;;;;;;6.22;3.90;;;7.90;99.90;;;;;;20885646;28;20048;-81
2021/11/03 14:07:41;;;;;;;9.38;3.90;;;8.00;99.90;;;;;;20886779;28;20029;-81
2021/11/03 14:17:42;;;;;;;5.85;4.28;;;7.90;99.90;;;;;;20868625;28;20029;-79
2021/11/03 14:27:44;;;;;;;6.63;4.45;;;7.90;99.90;;;;;;20893533;28;20756;-81
2021/11/03 14:37:50;;;;;;;8.95;5.85;;;7.90;99.90;;;;;;20900212;28;21345;-82
2021/11/03 14:47:51;;;;;;;8.10;5.72;;;7.80;99.90;;;;;;20876949;28;20043;-80
2021/11/03 14:57:53;;;;;;;9.07;6.17;;;7.60;99.90;;;;;;20878782;28;20443;-81
2021/11/03 15:07:59;;;;;;;7.80;5.25;;;7.70;99.90;;;;;;20880758;28;20037;-81
2021/11/03 15:18:00;;;;;;;8.20;5.07;;;7.60;99.90;;;;;;20888655;28;20073;-81
2021/11/03 15:28:01;;;;;;;9.40;5.90;;;7.60;99.90;;;;;;20879615;28;20095;-80
2021/11/03 15:38:27;;;;;;;13.83;7.87;;;7.60;99.90;;;;;;20907598;28;20110;-84
2021/11/03 15:48:29;;;;;;;15.30;6.43;;;7.70;99.90;;;;;;20864897;28;20037;-81
2021/11/03 15:58:30;;;;;;;15.55;8.32;;;7.50;99.90;;;;;;20875232;28;20542;-80
2021/11/03 16:08:31;;;;;;;12.25;8.35;;;7.40;99.90;;;;;;20906708;28;20059;-80
2021/11/03 16:18:33;;;;;;;14.43;8.63;;;7.30;99.90;;;;;;20889408;28;20037;-80
2021/11/03 16:28:34;;;;;;;12.98;8.23;;;7.20;99.90;;;;;;20873701;28;20025;-83
2021/11/03 16:38:35;;;;;;;13.57;8.38;;;7.10;99.90;;;;;;20887249;28;20039;-82
2021/11/03 16:48:36;;;;;;;16.57;9.83;;;7.10;99.90;;;;;;20879251;28;20037;-80
2021/11/03 16:58:40;;;;;;;103.50;43.13;;;7.10;99.90;;;;;;20876661;28;20564;-80
2021/11/03 17:08:42;;;;;;;20.00;12.52;;;7.00;99.90;;;;;;20895992;28;20039;-81
2021/11/03 17:18:44;;;;;;;17.13;10.15;;;6.90;99.90;;;;;;20890734;28;20037;-79
2021/11/03 17:28:46;;;;;;;14.90;8.80;;;6.90;99.90;;;;;;20972404;22;20052;-78
2021/11/03 17:38:47;;;;;;;18.98;11.77;;;6.90;99.90;;;;;;20958191;28;20025;-81
2021/11/03 17:48:49;;;;;;;;;;;6.90;99.90;;;;;;20956190;28;20159;-79
2021/11/03 17:58:50;;;;;;;24.00;15.63;;;7.00;99.90;;;;;;20955087;28;19919;-80
2021/11/03 18:08:51;;;;;;;;;;;7.00;99.90;;;;;;20946045;28;20044;-79
2021/11/03 18:18:52;;;;;;;8.30;5.40;;;7.10;99.90;;;;;;20942419;28;19920;-81
2021/11/03 18:28:56;;;;;;;10.90;5.83;;;7.10;99.90;;;;;;20925658;28;20055;-79
2021/11/03 18:38:58;;;;;;;13.35;7.25;;;7.10;99.90;;;;;;20948145;28;20469;-80
2021/11/03 18:49:02;;;;;;;11.65;6.95;;;7.20;99.90;;;;;;20963957;28;20116;-79
2021/11/03 18:59:03;;;;;;;19.08;10.52;;;7.10;99.90;;;;;;20961024;28;20044;-81
2021/11/03 19:09:17;;;;;;;6.67;3.23;;;7.10;99.90;;;;;;20956938;28;20035;-78
2021/11/03 19:19:19;;;;;;;8.10;4.80;;;7.00;99.90;;;;;;20961867;28;20033;-80
2021/11/03 19:29:20;;;;;;;13.45;6.38;;;7.10;99.90;;;;;;20959141;28;20060;-80
2021/11/03 19:39:33;;;;;;;8.20;5.43;;;7.00;99.90;;;;;;20929387;28;20036;-80
2021/11/03 19:49:35;;;;;;;7.20;3.95;;;7.00;99.90;;;;;;20928719;28;20039;-81
2021/11/03 19:59:36;;;;;;;5.57;3.78;;;6.90;99.90;;;;;;20963783;28;20112;-78
2021/11/03 20:09:37;;;;;;;13.20;8.90;;;6.80;99.90;;;;;;20948027;28;20041;-80
2021/11/03 20:19:39;;;;;;;5.97;3.20;;;6.80;99.90;;;;;;20952411;28;20056;-80
2021/11/03 20:29:40;;;;;;;5.72;3.55;;;6.70;99.90;;;;;;20962441;28;20047;-79
2021/11/03 20:39:42;;;;;;;3.50;2.83;;;6.80;99.90;;;;;;20961109;28;21440;-80
2021/11/03 20:49:43;;;;;;;;;;;6.70;99.90;;;;;;20958423;28;20024;-79
2021/11/03 20:59:44;;;;;;;5.32;3.53;;;6.80;99.90;;;;;;20964595;28;19924;-80
2021/11/03 21:09:48;;;;;;;5.00;3.37;;;6.70;99.90;;;;;;20943223;28;20024;-78
2021/11/03 21:19:49;;;;;;;6.63;3.67;;;6.70;99.90;;;;;;20939213;28;20043;-81
2021/11/03 21:29:50;;;;;;;6.85;3.25;;;6.80;99.90;;;;;;20957690;28;20609;-79
2021/11/03 21:39:52;;;;;;;;;;;6.70;99.90;;;;;;20919975;28;20044;-81
2021/11/03 21:49:53;;;;;;;5.40;3.78;;;6.60;99.90;;;;;;20948730;28;19971;-78
2021/11/03 21:59:54;;;;;;;10.73;3.28;;;6.60;99.90;;;;;;20936738;28;20074;-79
2021/11/03 22:09:55;;;;;;;8.03;3.40;;;6.60;99.90;;;;;;20956948;28;20047;-81
2021/11/03 22:19:56;;;;;;;3.55;2.30;;;6.70;99.90;;;;;;20933541;28;20031;-78
2021/11/03 22:29:58;;;;;;;1.50;1.20;;;6.50;99.90;;;;;;20933104;28;20084;-80
2021/11/03 22:40:00;;;;;;;;;;;6.20;99.90;;;;;;20950253;28;20033;-77
2021/11/03 22:50:03;;;;;;;4.90;1.40;;;6.10;99.90;;;;;;20928780;28;19921;-78
2021/11/03 23:00:13;;;;;;;2.22;1.48;;;5.90;99.90;;;;;;20955068;28;20036;-80
2021/11/03 23:10:15;;;;;;;2.83;1.92;;;5.90;99.90;;;;;;20949076;28;20047;-80
2021/11/03 23:20:16;;;;;;;2.72;2.10;;;5.70;99.90;;;;;;20944219;28;20131;-80
2021/11/03 23:30:18;;;;;;;;;;;5.60;99.90;;;;;;20900998;28;20478;-81
2021/11/03 23:40:19;;;;;;;2.10;1.60;;;5.60;99.90;;;;;;20897239;28;19975;-79
